サンフアン の空港の天気 - METARとTAF

ルイス・ムニョス・マリン国際空港 ( TJSJ / SJU ) - プエルトリコ サンフアン
飛行場実況気象(Metar)
観測時間04/25 09:56 AST (04/25 13:56 UTC)
風向・風速東 5m/s
視程10km以上
天気現象
全天の4割程度の雲 雲底高度 760m
全天の4割程度の雲 雲底高度 1680m
気温27.8℃
湿度77%
気圧1017hPa
METARTJSJ 251356Z 10010KT 10SM SCT025 SCT055 28/23 A3004 RMK AO2 SLP170 T02780233
過去の天気等 Google飛行場航空写真 Wunderground天気予報

過去48時間のMETAR

飛行場予報(TAF)
発表時間: 4/25 07:37 AST (4/25 11:37 UTC)
予報対象時間: 25日8時 AST ~ 26日8時 AST
風向・風速東 5m/s
視程10km以上
天気現象周辺でしゅう雨
少しの雲 雲底高度 760m
全天の4割程度の雲 雲底高度 1,070m
全天の4割程度の雲 雲底高度 1,830m
25日10時 AST から
風向・風速東 8m/s
視程10km以上
全天の4割程度の雲 雲底高度 910m
25日18時 AST から
風向・風速東 5m/s
視程10km以上
全天の4割程度の雲 雲底高度 790m
TJSJ 251137Z 2512/2612 10009KT P6SM VCSH FEW025 SCT035 SCT060
FM251400 08015KT P6SM SCT030
FM252200 10010KT P6SM SCT026